createdAt,value
2022-08-03T00:01:35.763Z,11.30
2022-08-03T00:04:03.616Z,14.27
2022-08-03T00:06:36.465Z,11.32
2022-08-03T00:09:06.373Z,11.63
2022-08-03T00:11:34.161Z,9.43
2022-08-03T00:14:03.539Z,9.27
2022-08-03T00:16:31.287Z,10.80
2022-08-03T00:19:00.824Z,10.00
2022-08-03T00:21:29.712Z,11.43
2022-08-03T00:23:57.614Z,8.65
2022-08-03T00:26:25.405Z,12.30
2022-08-03T00:28:53.159Z,11.45
2022-08-03T00:31:38.047Z,12.82
2022-08-03T00:34:10.284Z,13.98
2022-08-03T00:36:40.439Z,14.85
2022-08-03T00:39:08.190Z,16.17
2022-08-03T00:41:35.991Z,13.70
2022-08-03T00:44:03.901Z,14.13
2022-08-03T00:46:33.456Z,14.95
2022-08-03T00:49:01.415Z,11.35
2022-08-03T00:51:29.282Z,14.15
2022-08-03T00:53:56.989Z,13.13
2022-08-03T00:56:24.807Z,11.55
2022-08-03T00:58:54.475Z,10.65
2022-08-03T01:01:22.336Z,10.27
2022-08-03T01:03:51.480Z,10.63
2022-08-03T01:06:20.996Z,14.80
2022-08-03T01:08:55.553Z,12.85
2022-08-03T01:11:30.593Z,13.65
2022-08-03T01:14:19.053Z,14.20
2022-08-03T01:16:56.203Z,10.88
2022-08-03T01:19:37.776Z,8.50
2022-08-03T01:22:18.990Z,10.52
2022-08-03T01:24:54.368Z,7.83
2022-08-03T01:27:27.071Z,10.02
2022-08-03T01:30:03.944Z,10.82
2022-08-03T01:32:58.488Z,8.60
2022-08-03T01:35:38.971Z,9.10
2022-08-03T01:38:14.565Z,11.95
2022-08-03T01:40:45.426Z,8.75
2022-08-03T01:44:27.509Z,10.48
2022-08-03T01:48:38.926Z,10.57
2022-08-03T01:51:07.795Z,16.95
2022-08-03T01:53:37.971Z,12.70
2022-08-03T01:56:07.550Z,9.82
2022-08-03T01:58:37.354Z,11.55
2022-08-03T02:01:07.119Z,12.35
2022-08-03T02:03:59.607Z,9.02
2022-08-03T02:07:00.842Z,8.88
2022-08-03T02:09:18.962Z,7.57
2022-08-03T02:11:48.545Z,11.45
2022-08-03T02:14:18.471Z,14.43
2022-08-03T02:16:50.152Z,8.27
2022-08-03T02:19:19.298Z,9.82
2022-08-03T02:21:57.217Z,14.40
2022-08-03T02:24:29.257Z,9.23
2022-08-03T02:26:57.916Z,14.68
2022-08-03T02:29:39.368Z,8.02
2022-08-03T02:32:11.535Z,7.47
2022-08-03T02:34:43.076Z,10.27
2022-08-03T02:37:13.714Z,10.70
2022-08-03T02:39:42.119Z,13.75
2022-08-03T02:42:12.241Z,11.82
2022-08-03T02:44:47.685Z,12.80
2022-08-03T02:47:21.323Z,10.38
2022-08-03T02:49:52.195Z,8.15
2022-08-03T02:52:23.257Z,7.75
2022-08-03T02:54:55.955Z,13.85
2022-08-03T02:57:25.903Z,9.93
2022-08-03T02:59:56.300Z,11.23
2022-08-03T03:02:26.550Z,8.68
2022-08-03T03:05:52.491Z,12.68
2022-08-03T03:07:51.392Z,11.68
2022-08-03T03:10:21.695Z,12.40
2022-08-03T03:12:51.229Z,12.55
2022-08-03T03:15:19.346Z,10.35
2022-08-03T03:17:50.375Z,9.88
2022-08-03T03:20:29.439Z,7.87
2022-08-03T03:23:00.976Z,9.02
2022-08-03T03:25:29.805Z,10.15
2022-08-03T03:27:58.005Z,10.88
2022-08-03T03:30:26.505Z,10.93
2022-08-03T03:32:56.173Z,13.68
2022-08-03T03:35:23.955Z,11.23
2022-08-03T03:37:52.919Z,10.88
2022-08-03T03:40:22.374Z,12.73
2022-08-03T03:42:50.799Z,8.75
2022-08-03T03:45:19.750Z,8.40
2022-08-03T03:47:48.111Z,10.55
2022-08-03T03:50:19.440Z,11.82
2022-08-03T03:52:47.439Z,11.30
2022-08-03T03:55:17.813Z,15.18
2022-08-03T03:57:45.812Z,12.70
2022-08-03T04:00:15.489Z,11.90
2022-08-03T04:02:43.570Z,10.55
2022-08-03T04:05:28.964Z,13.15
2022-08-03T04:08:18.280Z,10.43
2022-08-03T04:11:01.676Z,8.55
2022-08-03T04:13:34.626Z,8.52
2022-08-03T04:16:04.280Z,11.05
2022-08-03T04:18:34.981Z,9.32
2022-08-03T04:21:04.779Z,14.20
2022-08-03T04:23:36.718Z,11.32
2022-08-03T04:26:09.618Z,9.80
2022-08-03T04:28:40.628Z,11.95
2022-08-03T04:31:09.114Z,13.13
2022-08-03T04:33:39.503Z,9.18
2022-08-03T04:36:10.703Z,13.27
2022-08-03T04:38:45.451Z,14.32
2022-08-03T04:41:14.166Z,8.48
2022-08-03T04:43:42.224Z,12.70
2022-08-03T04:46:11.285Z,10.40
2022-08-03T04:48:42.356Z,10.65
2022-08-03T04:51:12.976Z,9.50
2022-08-03T04:53:42.200Z,10.63
2022-08-03T04:56:10.232Z,12.68
2022-08-03T04:58:38.047Z,12.05
2022-08-03T05:01:05.980Z,11.02
2022-08-03T05:03:33.728Z,14.27
2022-08-03T05:06:09.921Z,12.52
2022-08-03T05:08:41.197Z,10.98
2022-08-03T05:11:16.225Z,11.50
2022-08-03T05:13:43.989Z,12.13
2022-08-03T05:16:12.303Z,20.85
2022-08-03T05:18:40.087Z,11.60
2022-08-03T05:21:07.904Z,15.88
2022-08-03T05:23:35.687Z,15.93
2022-08-03T05:26:03.443Z,16.52
2022-08-03T05:28:32.582Z,14.02
2022-08-03T05:31:00.323Z,11.75
2022-08-03T05:33:28.108Z,13.63
2022-08-03T05:36:01.149Z,16.10
2022-08-03T05:38:34.603Z,11.43
2022-08-03T05:41:21.125Z,12.52
2022-08-03T05:43:53.758Z,17.10
2022-08-03T05:46:22.228Z,11.95
2022-08-03T05:48:50.381Z,14.05
2022-08-03T05:51:18.556Z,13.43
2022-08-03T05:53:46.626Z,15.63
2022-08-03T05:56:16.185Z,11.43
2022-08-03T05:58:46.001Z,8.98
2022-08-03T06:01:15.298Z,13.40
2022-08-03T06:03:43.200Z,14.25
2022-08-03T06:06:11.626Z,16.63
2022-08-03T06:08:40.187Z,15.38
2022-08-03T06:11:07.972Z,12.60
2022-08-03T06:13:35.794Z,11.00
2022-08-03T06:16:03.748Z,9.98
2022-08-03T06:18:32.963Z,13.65
2022-08-03T06:21:14.594Z,15.45
2022-08-03T06:23:54.533Z,16.92
2022-08-03T06:26:28.663Z,16.63
2022-08-03T06:28:56.578Z,16.80
2022-08-03T06:31:32.227Z,12.63
2022-08-03T06:34:32.195Z,14.45
2022-08-03T06:36:51.193Z,12.50
2022-08-03T06:39:20.530Z,14.85
2022-08-03T06:41:51.024Z,12.50
2022-08-03T06:44:18.896Z,15.48
2022-08-03T06:46:47.719Z,11.32
2022-08-03T06:49:16.947Z,14.27
2022-08-03T06:52:03.899Z,11.35
2022-08-03T06:54:33.253Z,11.95
2022-08-03T06:57:01.475Z,11.52
2022-08-03T07:00:08.022Z,16.10
2022-08-03T07:02:19.254Z,13.82
2022-08-03T07:04:48.774Z,11.43
2022-08-03T07:07:17.380Z,12.98
2022-08-03T07:09:56.941Z,12.40
2022-08-03T07:12:27.504Z,12.95
2022-08-03T07:15:00.411Z,13.25
2022-08-03T07:17:30.486Z,14.48
2022-08-03T07:20:00.543Z,14.70
2022-08-03T07:22:28.604Z,15.45
2022-08-03T07:24:57.656Z,13.10
2022-08-03T07:27:26.857Z,15.68
2022-08-03T07:29:54.811Z,13.88
2022-08-03T07:32:22.736Z,13.70
2022-08-03T07:34:50.477Z,16.30
2022-08-03T07:37:19.658Z,16.35
2022-08-03T07:39:47.483Z,13.38
2022-08-03T07:42:15.426Z,15.23
2022-08-03T07:44:43.339Z,10.25
2022-08-03T07:47:11.072Z,15.65
2022-08-03T07:49:50.357Z,14.82
2022-08-03T07:52:37.278Z,15.55
2022-08-03T07:55:06.355Z,14.52
2022-08-03T07:57:34.830Z,12.77
2022-08-03T08:00:03.194Z,12.48
2022-08-03T08:02:39.790Z,16.13
2022-08-03T08:05:08.283Z,12.48
2022-08-03T08:07:37.786Z,15.70
2022-08-03T08:10:06.798Z,13.82
2022-08-03T08:12:34.623Z,13.88
2022-08-03T08:15:02.585Z,17.35
2022-08-03T08:17:30.460Z,13.43
2022-08-03T08:19:58.256Z,10.18
2022-08-03T08:22:30.372Z,14.02
2022-08-03T08:25:01.508Z,15.52
2022-08-03T08:28:31.709Z,17.73
2022-08-03T08:30:19.451Z,14.48
2022-08-03T08:32:47.724Z,12.23
2022-08-03T08:35:15.585Z,11.70
2022-08-03T08:37:44.105Z,12.45
2022-08-03T08:40:22.051Z,16.13
2022-08-03T08:42:58.942Z,16.60
2022-08-03T08:45:27.469Z,14.60
2022-08-03T08:48:00.846Z,19.95
2022-08-03T08:50:31.183Z,16.73
2022-08-03T08:53:03.073Z,13.32
2022-08-03T08:55:59.470Z,11.07
2022-08-03T08:58:23.384Z,11.77
2022-08-03T09:00:51.836Z,11.82
2022-08-03T09:03:29.169Z,13.80
2022-08-03T09:05:59.879Z,14.48
2022-08-03T09:08:27.740Z,13.30
2022-08-03T09:10:56.932Z,11.90
2022-08-03T09:13:25.112Z,13.00
2022-08-03T09:16:10.971Z,12.35
2022-08-03T09:18:39.681Z,12.77
2022-08-03T09:21:37.540Z,11.63
2022-08-03T09:24:13.139Z,10.30
2022-08-03T09:26:53.774Z,11.60
2022-08-03T09:29:22.669Z,9.85
2022-08-03T09:31:50.449Z,8.68
2022-08-03T09:34:19.513Z,10.15
2022-08-03T09:36:48.475Z,12.10
2022-08-03T09:39:17.867Z,12.52
2022-08-03T09:41:47.235Z,13.00
2022-08-03T09:44:25.035Z,11.90
2022-08-03T09:46:55.007Z,8.48
2022-08-03T09:49:23.628Z,14.18
2022-08-03T09:52:33.543Z,10.52
2022-08-03T09:54:41.155Z,7.65
2022-08-03T09:57:09.017Z,12.38
2022-08-03T09:59:41.118Z,8.10
2022-08-03T10:02:22.062Z,10.80
2022-08-03T10:04:52.453Z,11.57
2022-08-03T10:07:21.774Z,12.25
2022-08-03T10:09:57.542Z,11.52
2022-08-03T10:12:26.064Z,12.70
2022-08-03T10:14:56.616Z,9.88
2022-08-03T10:17:24.539Z,12.88
2022-08-03T10:19:52.319Z,10.70
2022-08-03T10:22:22.872Z,8.73
2022-08-03T10:24:56.196Z,8.00
2022-08-03T10:27:25.420Z,9.43
2022-08-03T10:29:55.066Z,10.35
2022-08-03T10:32:31.623Z,11.35
2022-08-03T10:35:19.152Z,11.27
2022-08-03T10:37:57.223Z,12.02
2022-08-03T10:43:21.684Z,7.82
2022-08-03T10:45:50.726Z,10.30
2022-08-03T10:48:21.061Z,8.82
2022-08-03T10:50:50.496Z,9.73
2022-08-03T10:53:35.566Z,7.47
2022-08-03T10:56:47.275Z,9.73
2022-08-03T10:59:09.842Z,8.23
2022-08-03T11:02:00.242Z,9.15
2022-08-03T11:04:30.925Z,11.77
2022-08-03T11:07:22.706Z,8.50
2022-08-03T11:12:30.924Z,8.65
2022-08-03T11:15:02.081Z,9.77
2022-08-03T11:17:30.039Z,8.88
2022-08-03T11:19:59.271Z,10.75
2022-08-03T11:22:47.367Z,11.93
2022-08-03T11:25:53.915Z,13.80
2022-08-03T11:28:27.047Z,12.35
2022-08-03T11:30:54.970Z,10.93
2022-08-03T11:33:32.572Z,11.75
2022-08-03T11:36:03.050Z,9.45
2022-08-03T11:38:30.807Z,9.38
2022-08-03T11:40:58.593Z,9.95
2022-08-03T11:43:46.321Z,11.00
2022-08-03T11:46:28.618Z,8.10
2022-08-03T11:49:10.230Z,6.70
2022-08-03T11:51:41.011Z,8.50
2022-08-03T11:54:08.968Z,13.27
2022-08-03T11:56:46.656Z,7.88
2022-08-03T11:59:20.452Z,8.60
2022-08-03T12:01:49.736Z,11.48
2022-08-03T12:04:17.591Z,14.00
2022-08-03T12:07:00.886Z,15.43
2022-08-03T12:09:28.632Z,12.55
2022-08-03T12:12:00.646Z,11.75
2022-08-03T12:14:49.373Z,8.52
2022-08-03T12:17:18.417Z,10.20
2022-08-03T12:19:46.491Z,8.98
2022-08-03T12:22:16.780Z,7.72
2022-08-03T12:24:47.169Z,10.15
2022-08-03T12:27:24.976Z,11.73
2022-08-03T12:29:58.723Z,15.48
2022-08-03T12:32:27.845Z,12.63
2022-08-03T12:35:00.083Z,14.13
2022-08-03T12:37:30.015Z,12.05
2022-08-03T12:40:03.081Z,10.52
2022-08-03T12:42:35.939Z,12.68
2022-08-03T12:45:25.620Z,14.93
2022-08-03T12:47:56.138Z,11.68
2022-08-03T12:50:29.100Z,11.40
2022-08-03T12:52:59.863Z,9.55
2022-08-03T12:55:40.073Z,13.47
2022-08-03T12:58:33.648Z,14.93
2022-08-03T13:01:05.263Z,10.63
2022-08-03T13:03:43.353Z,10.30
2022-08-03T13:06:14.621Z,13.00
2022-08-03T13:08:45.597Z,11.75
2022-08-03T13:11:21.450Z,11.80
2022-08-03T13:13:49.597Z,11.25
2022-08-03T13:16:19.339Z,13.18
2022-08-03T13:18:48.104Z,10.23
2022-08-03T13:21:17.306Z,15.02
2022-08-03T13:23:46.709Z,11.07
2022-08-03T13:26:14.623Z,15.45
2022-08-03T13:28:42.798Z,12.88
2022-08-03T13:31:10.746Z,11.35
2022-08-03T13:33:39.682Z,10.60
2022-08-03T13:36:08.144Z,15.55
2022-08-03T13:38:35.969Z,17.67
2022-08-03T13:41:05.294Z,21.40
2022-08-03T13:43:33.050Z,13.75
2022-08-03T13:46:00.785Z,12.05
2022-08-03T13:48:36.219Z,7.95
2022-08-03T13:51:21.839Z,12.23
2022-08-03T13:53:52.245Z,16.38
2022-08-03T13:56:21.431Z,13.63
2022-08-03T13:58:49.175Z,8.25
2022-08-03T14:01:17.426Z,9.05
2022-08-03T14:03:46.987Z,14.88
2022-08-03T14:06:14.727Z,14.32
2022-08-03T14:08:42.608Z,9.35
2022-08-03T14:11:10.340Z,13.27
2022-08-03T14:13:39.589Z,11.63
2022-08-03T14:16:09.993Z,16.98
2022-08-03T14:18:38.035Z,14.75
2022-08-03T14:21:09.281Z,15.02
2022-08-03T14:23:38.580Z,10.40
2022-08-03T14:26:08.410Z,10.95
2022-08-03T14:28:36.731Z,14.65
2022-08-03T14:31:08.537Z,10.30
2022-08-03T14:33:53.696Z,14.35
2022-08-03T14:36:21.521Z,8.55
2022-08-03T14:38:49.505Z,10.80
2022-08-03T14:41:20.091Z,12.30
2022-08-03T14:44:00.627Z,9.47
2022-08-03T14:46:32.035Z,10.73
2022-08-03T14:50:27.939Z,12.30
2022-08-03T14:51:53.508Z,10.40
2022-08-03T14:54:22.201Z,10.52
2022-08-03T14:56:49.937Z,13.20
2022-08-03T14:59:17.691Z,10.93
2022-08-03T15:02:04.419Z,10.95
2022-08-03T15:04:34.326Z,10.18
2022-08-03T15:07:02.076Z,12.05
2022-08-03T15:09:29.867Z,12.30
2022-08-03T15:11:57.789Z,8.05
2022-08-03T15:14:32.330Z,9.77
2022-08-03T15:17:02.602Z,10.43
2022-08-03T15:20:00.466Z,10.70
2022-08-03T15:22:20.457Z,8.07
2022-08-03T15:24:48.837Z,9.05
2022-08-03T15:27:16.679Z,11.95
2022-08-03T15:30:06.671Z,13.23
2022-08-03T15:32:34.014Z,11.45
2022-08-03T15:35:01.875Z,10.50
2022-08-03T15:37:29.634Z,13.90
2022-08-03T15:39:58.869Z,11.85
2022-08-03T15:42:29.488Z,8.60
2022-08-03T15:44:57.371Z,14.52
2022-08-03T15:47:25.462Z,11.38
2022-08-03T15:49:54.584Z,11.05
2022-08-03T15:52:22.409Z,14.80
2022-08-03T15:54:50.292Z,12.35
2022-08-03T15:57:18.187Z,8.43
2022-08-03T15:59:46.184Z,13.10
2022-08-03T16:02:14.033Z,11.65
2022-08-03T16:04:41.820Z,12.60
2022-08-03T16:07:17.587Z,10.00
2022-08-03T16:09:45.364Z,9.73
2022-08-03T16:12:16.114Z,7.88
2022-08-03T16:14:52.259Z,9.52
2022-08-03T16:17:21.558Z,9.27
2022-08-03T16:19:49.824Z,10.30
2022-08-03T16:22:19.509Z,9.70
2022-08-03T16:24:47.683Z,12.55
2022-08-03T16:27:37.522Z,13.43
2022-08-03T16:30:03.276Z,9.30
2022-08-03T16:32:31.271Z,9.57
2022-08-03T16:34:59.047Z,11.45
2022-08-03T16:37:56.286Z,8.45
2022-08-03T16:40:17.650Z,8.85
2022-08-03T16:42:47.723Z,10.20
2022-08-03T16:45:15.708Z,10.52
2022-08-03T16:47:43.502Z,13.05
2022-08-03T16:50:19.029Z,7.70
2022-08-03T16:52:48.890Z,13.77
2022-08-03T16:55:42.966Z,7.78
2022-08-03T16:58:06.461Z,9.15
2022-08-03T17:00:41.325Z,10.20
2022-08-03T17:03:19.041Z,8.30
2022-08-03T17:05:49.938Z,9.50
2022-08-03T17:08:27.066Z,7.50
2022-08-03T17:10:55.822Z,9.50
2022-08-03T17:13:38.864Z,9.05
2022-08-03T17:16:11.898Z,7.43
2022-08-03T17:18:47.546Z,8.77
2022-08-03T17:21:17.074Z,10.98
2022-08-03T17:23:55.800Z,10.77
2022-08-03T17:26:30.411Z,9.38
2022-08-03T17:29:11.445Z,6.95
2022-08-03T17:31:48.600Z,10.13
2022-08-03T17:34:17.746Z,11.95
2022-08-03T17:37:03.668Z,9.13
2022-08-03T17:39:58.765Z,8.45
2022-08-03T17:42:30.442Z,8.70
2022-08-03T17:45:02.050Z,12.68
2022-08-03T17:47:41.987Z,8.00
2022-08-03T17:50:25.026Z,7.43
2022-08-03T17:53:01.064Z,5.57
2022-08-03T17:55:56.823Z,7.53
2022-08-03T17:58:43.744Z,6.07
2022-08-03T18:02:03.199Z,9.43
2022-08-03T18:04:29.837Z,4.93
2022-08-03T18:07:00.375Z,6.55
2022-08-03T18:10:06.428Z,4.00
2022-08-03T18:12:32.034Z,7.30
2022-08-03T18:15:07.771Z,6.20
2022-08-03T18:17:55.604Z,7.43
2022-08-03T18:20:32.112Z,6.60
2022-08-03T18:23:04.895Z,7.07
2022-08-03T18:25:43.033Z,6.05
2022-08-03T18:28:23.143Z,4.75
2022-08-03T18:30:54.470Z,9.45
2022-08-03T18:36:17.676Z,4.10
2022-08-03T18:38:53.829Z,6.63
2022-08-03T18:41:32.460Z,5.78
2022-08-03T18:44:08.282Z,4.38
2022-08-03T18:46:51.480Z,5.80
2022-08-03T18:49:38.424Z,5.47
2022-08-03T18:52:16.560Z,6.55
2022-08-03T18:55:03.877Z,5.90
2022-08-03T18:57:46.427Z,6.10
2022-08-03T19:00:24.398Z,6.45
2022-08-03T19:03:05.770Z,4.53
2022-08-03T19:05:53.030Z,5.40
2022-08-03T19:08:34.651Z,5.13
2022-08-03T19:11:06.203Z,5.88
2022-08-03T19:13:50.277Z,5.93
2022-08-03T19:16:38.838Z,8.57
2022-08-03T19:19:10.708Z,6.85
2022-08-03T19:21:42.382Z,5.10
2022-08-03T19:24:10.558Z,5.63
2022-08-03T19:26:41.213Z,4.03
2022-08-03T19:29:14.922Z,5.80
2022-08-03T19:31:57.954Z,5.88
2022-08-03T19:34:28.866Z,6.07
2022-08-03T19:36:57.697Z,5.40
2022-08-03T19:39:25.666Z,7.30
2022-08-03T19:41:59.294Z,7.88
2022-08-03T19:44:38.881Z,5.18
2022-08-03T19:47:16.836Z,8.90
2022-08-03T19:50:06.045Z,8.32
2022-08-03T19:52:38.714Z,4.68
2022-08-03T19:57:44.004Z,5.18
2022-08-03T20:00:29.329Z,4.68
2022-08-03T20:03:03.467Z,7.22
2022-08-03T20:05:44.970Z,8.70
2022-08-03T20:08:20.661Z,7.00
2022-08-03T20:10:51.395Z,5.55
2022-08-03T20:13:23.859Z,5.70
2022-08-03T20:15:58.720Z,7.20
2022-08-03T20:18:27.813Z,5.10
2022-08-03T20:21:00.160Z,6.88
2022-08-03T20:23:37.401Z,6.75
2022-08-03T20:26:05.491Z,6.78
2022-08-03T20:28:50.180Z,5.43
2022-08-03T20:31:25.150Z,6.13
2022-08-03T20:34:04.620Z,5.60
2022-08-03T20:39:00.263Z,6.25
2022-08-03T20:41:28.248Z,6.32
2022-08-03T20:44:00.889Z,6.63
2022-08-03T20:46:40.656Z,5.30
2022-08-03T20:49:21.208Z,7.55
2022-08-03T20:51:53.059Z,7.65
2022-08-03T20:54:30.971Z,7.75
2022-08-03T20:57:00.399Z,5.00
2022-08-03T20:59:38.457Z,6.30
2022-08-03T21:02:19.818Z,5.70
2022-08-03T21:05:03.604Z,9.70
2022-08-03T21:07:45.527Z,9.80
2022-08-03T21:10:30.668Z,5.88
2022-08-03T21:13:15.268Z,5.60
2022-08-03T21:16:12.731Z,9.32
2022-08-03T21:18:43.162Z,6.03
2022-08-03T21:21:15.667Z,6.90
2022-08-03T21:23:48.847Z,7.90
2022-08-03T21:26:18.722Z,7.07
2022-08-03T21:28:47.668Z,8.20
2022-08-03T21:31:24.860Z,6.25
2022-08-03T21:33:55.533Z,4.78
2022-08-03T21:36:25.406Z,5.32
2022-08-03T21:38:56.108Z,5.32
2022-08-03T21:41:24.997Z,6.20
2022-08-03T21:43:52.742Z,6.38
2022-08-03T21:46:21.249Z,3.88
2022-08-03T21:48:56.241Z,3.10
2022-08-03T21:51:26.946Z,4.63
2022-08-03T21:54:02.727Z,4.18
2022-08-03T21:56:37.516Z,5.00
2022-08-03T21:59:08.598Z,4.90
2022-08-03T22:01:40.650Z,7.03
2022-08-03T22:04:11.929Z,8.73
2022-08-03T22:07:00.545Z,6.30
2022-08-03T22:09:29.289Z,5.03
2022-08-03T22:11:57.086Z,6.38
2022-08-03T22:14:24.908Z,4.88
2022-08-03T22:16:52.697Z,4.45
2022-08-03T22:19:20.431Z,3.80
2022-08-03T22:21:49.565Z,5.28
2022-08-03T22:24:23.797Z,5.47
2022-08-03T22:27:18.923Z,4.70
2022-08-03T22:29:46.904Z,4.80
2022-08-03T22:32:14.674Z,4.63
2022-08-03T22:34:43.821Z,6.10
2022-08-03T22:37:12.292Z,5.10
2022-08-03T22:39:43.739Z,5.30
2022-08-03T22:42:12.427Z,3.65
2022-08-03T22:44:41.286Z,5.13
2022-08-03T22:47:10.498Z,5.90
2022-08-03T22:49:39.106Z,4.75
2022-08-03T22:52:08.439Z,3.95
2022-08-03T22:54:36.528Z,3.50
2022-08-03T22:57:06.105Z,3.55
2022-08-03T22:59:39.069Z,3.42
2022-08-03T23:02:20.307Z,5.53
2022-08-03T23:04:52.163Z,3.67
2022-08-03T23:07:28.345Z,3.30
2022-08-03T23:09:57.449Z,4.07
2022-08-03T23:12:29.502Z,7.22
2022-08-03T23:15:01.475Z,6.35
2022-08-03T23:17:32.363Z,6.20
2022-08-03T23:20:04.690Z,4.90
2022-08-03T23:22:35.194Z,6.05
2022-08-03T23:25:04.859Z,4.82
2022-08-03T23:27:34.491Z,4.35
2022-08-03T23:30:03.393Z,3.53
2022-08-03T23:32:31.943Z,3.13
2022-08-03T23:35:19.248Z,3.72
2022-08-03T23:38:04.618Z,3.08
2022-08-03T23:40:38.143Z,3.55
2022-08-03T23:43:07.497Z,3.45
2022-08-03T23:45:42.112Z,3.75
2022-08-03T23:48:09.826Z,3.55
2022-08-03T23:50:45.501Z,6.30
2022-08-03T23:53:18.466Z,2.92
2022-08-03T23:56:02.578Z,5.40
2022-08-03T23:59:00.042Z,3.83
